sensor_id;sensor_type;location;lat;lon;timestamp;temperature;humidity
52211;DHT22;38179;52.756;6.906;2023-04-12T00:00:34;7.00;99.90
52211;DHT22;38179;52.756;6.906;2023-04-12T00:03:07;7.00;99.90
52211;DHT22;38179;52.756;6.906;2023-04-12T00:05:34;7.00;99.90
52211;DHT22;38179;52.756;6.906;2023-04-12T00:08:01;7.00;99.90
52211;DHT22;38179;52.756;6.906;2023-04-12T00:10:29;7.00;99.90
52211;DHT22;38179;52.756;6.906;2023-04-12T00:12:55;7.00;99.90
52211;DHT22;38179;52.756;6.906;2023-04-12T00:15:20;7.00;99.90
52211;DHT22;38179;52.756;6.906;2023-04-12T00:17:46;7.00;99.90
52211;DHT22;38179;52.756;6.906;2023-04-12T00:20:13;7.10;99.90
52211;DHT22;38179;52.756;6.906;2023-04-12T00:22:41;7.10;99.90
52211;DHT22;38179;52.756;6.906;2023-04-12T00:25:07;7.10;99.90
52211;DHT22;38179;52.756;6.906;2023-04-12T00:27:33;7.10;99.90
52211;DHT22;38179;52.756;6.906;2023-04-12T00:29:58;7.10;99.90
52211;DHT22;38179;52.756;6.906;2023-04-12T00:32:25;7.10;99.90
52211;DHT22;38179;52.756;6.906;2023-04-12T00:34:51;7.10;99.90
52211;DHT22;38179;52.756;6.906;2023-04-12T00:37:17;7.10;99.90
52211;DHT22;38179;52.756;6.906;2023-04-12T00:39:42;7.10;99.90
52211;DHT22;38179;52.756;6.906;2023-04-12T00:42:08;7.20;99.90
52211;DHT22;38179;52.756;6.906;2023-04-12T00:44:34;7.20;99.90
52211;DHT22;38179;52.756;6.906;2023-04-12T00:47:00;7.20;99.90
52211;DHT22;38179;52.756;6.906;2023-04-12T00:49:27;7.20;99.90
52211;DHT22;38179;52.756;6.906;2023-04-12T00:51:59;7.20;99.90
52211;DHT22;38179;52.756;6.906;2023-04-12T00:54:28;7.30;99.90
52211;DHT22;38179;52.756;6.906;2023-04-12T00:56:54;7.30;99.90
52211;DHT22;38179;52.756;6.906;2023-04-12T00:59:22;7.30;99.90
52211;DHT22;38179;52.756;6.906;2023-04-12T01:01:48;7.30;99.90
52211;DHT22;38179;52.756;6.906;2023-04-12T01:04:14;7.30;99.90
52211;DHT22;38179;52.756;6.906;2023-04-12T01:06:45;7.30;99.90
52211;DHT22;38179;52.756;6.906;2023-04-12T01:11:50;7.40;99.90
52211;DHT22;38179;52.756;6.906;2023-04-12T01:14:28;7.50;99.90
52211;DHT22;38179;52.756;6.906;2023-04-12T01:16:56;7.50;99.90
52211;DHT22;38179;52.756;6.906;2023-04-12T01:26:55;7.60;99.90
52211;DHT22;38179;52.756;6.906;2023-04-12T01:29:26;7.60;99.90
52211;DHT22;38179;52.756;6.906;2023-04-12T01:31:57;7.70;99.90
52211;DHT22;38179;52.756;6.906;2023-04-12T01:34:24;7.70;99.90
52211;DHT22;38179;52.756;6.906;2023-04-12T01:36:50;7.70;99.90
52211;DHT22;38179;52.756;6.906;2023-04-12T01:39:17;7.80;99.90
52211;DHT22;38179;52.756;6.906;2023-04-12T01:41:43;7.80;99.90
52211;DHT22;38179;52.756;6.906;2023-04-12T01:44:13;7.80;99.90
52211;DHT22;38179;52.756;6.906;2023-04-12T01:46:39;7.90;99.90
52211;DHT22;38179;52.756;6.906;2023-04-12T01:49:05;7.90;99.90
52211;DHT22;38179;52.756;6.906;2023-04-12T01:53:58;8.00;99.90
52211;DHT22;38179;52.756;6.906;2023-04-12T01:56:25;8.00;99.90
52211;DHT22;38179;52.756;6.906;2023-04-12T01:58:52;8.00;99.90
52211;DHT22;38179;52.756;6.906;2023-04-12T02:01:18;8.00;99.90
52211;DHT22;38179;52.756;6.906;2023-04-12T02:03:44;8.10;99.90
52211;DHT22;38179;52.756;6.906;2023-04-12T02:06:10;8.10;99.90
52211;DHT22;38179;52.756;6.906;2023-04-12T02:08:36;8.10;99.90
52211;DHT22;38179;52.756;6.906;2023-04-12T02:11:08;8.10;99.90
52211;DHT22;38179;52.756;6.906;2023-04-12T02:13:34;8.10;99.90
52211;DHT22;38179;52.756;6.906;2023-04-12T02:16:00;8.10;99.90
52211;DHT22;38179;52.756;6.906;2023-04-12T02:18:26;8.10;99.90
52211;DHT22;38179;52.756;6.906;2023-04-12T02:20:53;8.00;99.90
52211;DHT22;38179;52.756;6.906;2023-04-12T02:23:19;8.00;99.90
52211;DHT22;38179;52.756;6.906;2023-04-12T02:25:44;8.00;99.90
52211;DHT22;38179;52.756;6.906;2023-04-12T02:28:11;8.00;99.90
52211;DHT22;38179;52.756;6.906;2023-04-12T02:30:37;8.10;99.90
52211;DHT22;38179;52.756;6.906;2023-04-12T02:33:03;8.20;99.90
52211;DHT22;38179;52.756;6.906;2023-04-12T02:35:30;8.20;99.90
52211;DHT22;38179;52.756;6.906;2023-04-12T02:37:56;8.20;99.90
52211;DHT22;38179;52.756;6.906;2023-04-12T02:40:22;8.20;99.90
52211;DHT22;38179;52.756;6.906;2023-04-12T02:42:48;8.20;99.90
52211;DHT22;38179;52.756;6.906;2023-04-12T02:45:13;8.20;99.90
52211;DHT22;38179;52.756;6.906;2023-04-12T02:47:39;8.20;99.90
52211;DHT22;38179;52.756;6.906;2023-04-12T02:50:06;8.20;99.90
52211;DHT22;38179;52.756;6.906;2023-04-12T02:52:32;8.20;99.90
52211;DHT22;38179;52.756;6.906;2023-04-12T02:54:58;8.20;99.90
52211;DHT22;38179;52.756;6.906;2023-04-12T02:57:23;8.20;99.90
52211;DHT22;38179;52.756;6.906;2023-04-12T02:59:50;8.10;99.90
52211;DHT22;38179;52.756;6.906;2023-04-12T03:02:18;8.10;99.90
52211;DHT22;38179;52.756;6.906;2023-04-12T03:04:43;8.10;99.90
52211;DHT22;38179;52.756;6.906;2023-04-12T03:07:12;8.00;99.90
52211;DHT22;38179;52.756;6.906;2023-04-12T03:09:37;8.00;99.90
52211;DHT22;38179;52.756;6.906;2023-04-12T03:12:03;8.00;99.90
52211;DHT22;38179;52.756;6.906;2023-04-12T03:14:29;8.10;99.90
52211;DHT22;38179;52.756;6.906;2023-04-12T03:16:55;8.10;99.90
52211;DHT22;38179;52.756;6.906;2023-04-12T03:19:21;8.00;99.90
52211;DHT22;38179;52.756;6.906;2023-04-12T03:21:46;8.10;99.90
52211;DHT22;38179;52.756;6.906;2023-04-12T03:24:12;8.00;99.90
52211;DHT22;38179;52.756;6.906;2023-04-12T03:26:38;8.00;99.90
52211;DHT22;38179;52.756;6.906;2023-04-12T03:29:04;8.00;99.90
52211;DHT22;38179;52.756;6.906;2023-04-12T03:31:29;8.00;99.90
52211;DHT22;38179;52.756;6.906;2023-04-12T03:33:55;8.00;99.90
52211;DHT22;38179;52.756;6.906;2023-04-12T03:36:21;8.00;99.90
52211;DHT22;38179;52.756;6.906;2023-04-12T03:38:47;8.10;99.90
52211;DHT22;38179;52.756;6.906;2023-04-12T03:41:13;8.00;99.90
52211;DHT22;38179;52.756;6.906;2023-04-12T03:43:39;8.00;99.90
52211;DHT22;38179;52.756;6.906;2023-04-12T03:46:07;8.00;99.90
52211;DHT22;38179;52.756;6.906;2023-04-12T03:48:32;8.00;99.90
52211;DHT22;38179;52.756;6.906;2023-04-12T03:50:58;8.00;99.90
52211;DHT22;38179;52.756;6.906;2023-04-12T03:53:24;7.90;99.90
52211;DHT22;38179;52.756;6.906;2023-04-12T03:55:51;7.90;99.90
52211;DHT22;38179;52.756;6.906;2023-04-12T03:58:18;7.90;99.90
52211;DHT22;38179;52.756;6.906;2023-04-12T04:00:44;7.90;99.90
52211;DHT22;38179;52.756;6.906;2023-04-12T04:03:11;7.90;99.90
52211;DHT22;38179;52.756;6.906;2023-04-12T04:05:37;7.90;99.90
52211;DHT22;38179;52.756;6.906;2023-04-12T04:08:03;7.90;99.90
52211;DHT22;38179;52.756;6.906;2023-04-12T04:10:31;7.90;99.90
52211;DHT22;38179;52.756;6.906;2023-04-12T04:12:57;7.90;99.90
52211;DHT22;38179;52.756;6.906;2023-04-12T04:15:26;7.90;99.90
52211;DHT22;38179;52.756;6.906;2023-04-12T04:17:52;7.90;99.90
52211;DHT22;38179;52.756;6.906;2023-04-12T04:20:18;7.90;99.90
52211;DHT22;38179;52.756;6.906;2023-04-12T04:22:44;7.90;99.90
52211;DHT22;38179;52.756;6.906;2023-04-12T04:25:12;7.90;99.90
52211;DHT22;38179;52.756;6.906;2023-04-12T04:27:42;7.90;99.90
52211;DHT22;38179;52.756;6.906;2023-04-12T04:30:10;7.90;99.90
52211;DHT22;38179;52.756;6.906;2023-04-12T04:32:38;7.80;99.90
52211;DHT22;38179;52.756;6.906;2023-04-12T04:35:04;7.80;99.90
52211;DHT22;38179;52.756;6.906;2023-04-12T04:37:30;7.80;99.90
52211;DHT22;38179;52.756;6.906;2023-04-12T04:40:00;7.80;99.90
52211;DHT22;38179;52.756;6.906;2023-04-12T04:42:39;7.80;99.90
52211;DHT22;38179;52.756;6.906;2023-04-12T04:45:04;7.80;99.90
52211;DHT22;38179;52.756;6.906;2023-04-12T04:47:37;7.80;99.90
52211;DHT22;38179;52.756;6.906;2023-04-12T04:50:03;7.80;99.90
52211;DHT22;38179;52.756;6.906;2023-04-12T04:52:29;7.80;99.90
52211;DHT22;38179;52.756;6.906;2023-04-12T04:54:55;7.70;99.90
52211;DHT22;38179;52.756;6.906;2023-04-12T04:57:22;7.70;99.90
52211;DHT22;38179;52.756;6.906;2023-04-12T04:59:48;7.70;99.90
52211;DHT22;38179;52.756;6.906;2023-04-12T05:02:13;7.70;99.90
52211;DHT22;38179;52.756;6.906;2023-04-12T05:04:40;7.70;99.90
52211;DHT22;38179;52.756;6.906;2023-04-12T05:07:06;7.70;99.90
52211;DHT22;38179;52.756;6.906;2023-04-12T05:09:32;7.70;99.90
52211;DHT22;38179;52.756;6.906;2023-04-12T05:11:59;7.70;99.90
52211;DHT22;38179;52.756;6.906;2023-04-12T05:14:24;7.60;99.90
52211;DHT22;38179;52.756;6.906;2023-04-12T05:16:50;7.60;99.90
52211;DHT22;38179;52.756;6.906;2023-04-12T05:19:16;7.60;99.90
52211;DHT22;38179;52.756;6.906;2023-04-12T05:21:41;7.60;99.90
52211;DHT22;38179;52.756;6.906;2023-04-12T05:24:07;7.60;99.90
52211;DHT22;38179;52.756;6.906;2023-04-12T05:26:33;7.60;99.90
52211;DHT22;38179;52.756;6.906;2023-04-12T05:28:58;7.60;99.90
52211;DHT22;38179;52.756;6.906;2023-04-12T05:31:25;7.60;99.90
52211;DHT22;38179;52.756;6.906;2023-04-12T05:33:52;7.50;99.90
52211;DHT22;38179;52.756;6.906;2023-04-12T05:36:19;7.50;99.90
52211;DHT22;38179;52.756;6.906;2023-04-12T05:38:45;7.50;99.90
52211;DHT22;38179;52.756;6.906;2023-04-12T05:41:11;7.50;99.90
52211;DHT22;38179;52.756;6.906;2023-04-12T05:43:37;7.50;99.90
52211;DHT22;38179;52.756;6.906;2023-04-12T05:46:04;7.50;99.90
52211;DHT22;38179;52.756;6.906;2023-04-12T05:48:32;7.40;99.90
52211;DHT22;38179;52.756;6.906;2023-04-12T05:50:57;7.40;99.90
52211;DHT22;38179;52.756;6.906;2023-04-12T05:53:23;7.40;99.90
52211;DHT22;38179;52.756;6.906;2023-04-12T05:55:52;7.40;99.90
52211;DHT22;38179;52.756;6.906;2023-04-12T05:58:18;7.40;99.90
52211;DHT22;38179;52.756;6.906;2023-04-12T06:00:44;7.40;99.90
52211;DHT22;38179;52.756;6.906;2023-04-12T06:03:11;7.40;99.90
52211;DHT22;38179;52.756;6.906;2023-04-12T06:05:37;7.40;99.90
52211;DHT22;38179;52.756;6.906;2023-04-12T06:08:03;7.40;99.90
52211;DHT22;38179;52.756;6.906;2023-04-12T06:10:33;7.40;99.90
52211;DHT22;38179;52.756;6.906;2023-04-12T06:12:58;7.40;99.90
52211;DHT22;38179;52.756;6.906;2023-04-12T06:15:24;7.40;99.90
52211;DHT22;38179;52.756;6.906;2023-04-12T06:17:50;7.40;99.90
52211;DHT22;38179;52.756;6.906;2023-04-12T06:20:16;7.30;99.90
52211;DHT22;38179;52.756;6.906;2023-04-12T06:22:42;7.30;99.90
52211;DHT22;38179;52.756;6.906;2023-04-12T06:25:08;7.30;99.90
52211;DHT22;38179;52.756;6.906;2023-04-12T06:27:33;7.30;99.90
52211;DHT22;38179;52.756;6.906;2023-04-12T06:29:59;7.30;99.90
52211;DHT22;38179;52.756;6.906;2023-04-12T06:32:25;7.30;99.90
52211;DHT22;38179;52.756;6.906;2023-04-12T06:34:51;7.30;99.90
52211;DHT22;38179;52.756;6.906;2023-04-12T06:37:17;7.30;99.90
52211;DHT22;38179;52.756;6.906;2023-04-12T06:39:43;7.30;99.90
52211;DHT22;38179;52.756;6.906;2023-04-12T06:42:12;7.30;99.90
52211;DHT22;38179;52.756;6.906;2023-04-12T06:44:37;7.30;99.90
52211;DHT22;38179;52.756;6.906;2023-04-12T06:47:04;7.30;99.90
52211;DHT22;38179;52.756;6.906;2023-04-12T06:49:29;7.30;99.90
52211;DHT22;38179;52.756;6.906;2023-04-12T06:51:55;7.30;99.90
52211;DHT22;38179;52.756;6.906;2023-04-12T06:54:21;7.30;99.90
52211;DHT22;38179;52.756;6.906;2023-04-12T06:56:48;7.30;99.90
52211;DHT22;38179;52.756;6.906;2023-04-12T06:59:14;7.30;99.90
52211;DHT22;38179;52.756;6.906;2023-04-12T07:01:40;7.20;99.90
52211;DHT22;38179;52.756;6.906;2023-04-12T07:04:05;7.20;99.90
52211;DHT22;38179;52.756;6.906;2023-04-12T07:06:31;7.20;99.90
52211;DHT22;38179;52.756;6.906;2023-04-12T07:08:57;7.20;99.90
52211;DHT22;38179;52.756;6.906;2023-04-12T07:11:22;7.20;99.90
52211;DHT22;38179;52.756;6.906;2023-04-12T07:13:48;7.20;99.90
52211;DHT22;38179;52.756;6.906;2023-04-12T07:16:14;7.20;99.90
52211;DHT22;38179;52.756;6.906;2023-04-12T07:18:40;7.20;99.90
52211;DHT22;38179;52.756;6.906;2023-04-12T07:21:06;7.20;99.90
52211;DHT22;38179;52.756;6.906;2023-04-12T07:23:31;7.20;99.90
52211;DHT22;38179;52.756;6.906;2023-04-12T07:25:58;7.30;99.90
52211;DHT22;38179;52.756;6.906;2023-04-12T07:28:23;7.30;99.90
52211;DHT22;38179;52.756;6.906;2023-04-12T07:30:49;7.30;99.90
52211;DHT22;38179;52.756;6.906;2023-04-12T07:33:15;7.30;99.90
52211;DHT22;38179;52.756;6.906;2023-04-12T07:35:40;7.30;99.90
52211;DHT22;38179;52.756;6.906;2023-04-12T07:38:07;7.30;99.90
52211;DHT22;38179;52.756;6.906;2023-04-12T07:40:32;7.30;99.90
52211;DHT22;38179;52.756;6.906;2023-04-12T07:42:58;7.30;99.90
52211;DHT22;38179;52.756;6.906;2023-04-12T07:45:24;7.20;99.90
52211;DHT22;38179;52.756;6.906;2023-04-12T07:47:50;7.30;99.90
52211;DHT22;38179;52.756;6.906;2023-04-12T07:50:15;7.30;99.90
52211;DHT22;38179;52.756;6.906;2023-04-12T07:52:41;7.30;99.90
52211;DHT22;38179;52.756;6.906;2023-04-12T07:55:07;7.30;99.90
52211;DHT22;38179;52.756;6.906;2023-04-12T07:57:34;7.30;99.90
52211;DHT22;38179;52.756;6.906;2023-04-12T08:00:00;7.20;99.90
52211;DHT22;38179;52.756;6.906;2023-04-12T08:02:26;7.30;99.90
52211;DHT22;38179;52.756;6.906;2023-04-12T08:04:54;7.30;99.90
52211;DHT22;38179;52.756;6.906;2023-04-12T08:07:20;7.30;99.90
52211;DHT22;38179;52.756;6.906;2023-04-12T08:09:49;7.30;99.90
52211;DHT22;38179;52.756;6.906;2023-04-12T08:12:15;7.30;99.90
52211;DHT22;38179;52.756;6.906;2023-04-12T08:14:41;7.30;99.90
52211;DHT22;38179;52.756;6.906;2023-04-12T08:17:06;7.40;99.90
52211;DHT22;38179;52.756;6.906;2023-04-12T08:19:32;7.40;99.90
52211;DHT22;38179;52.756;6.906;2023-04-12T08:21:59;7.40;99.90
52211;DHT22;38179;52.756;6.906;2023-04-12T08:24:26;7.40;99.90
52211;DHT22;38179;52.756;6.906;2023-04-12T08:26:51;7.40;99.90
52211;DHT22;38179;52.756;6.906;2023-04-12T08:29:17;7.40;99.90
52211;DHT22;38179;52.756;6.906;2023-04-12T08:31:43;7.40;99.90
52211;DHT22;38179;52.756;6.906;2023-04-12T08:34:09;7.40;99.90
52211;DHT22;38179;52.756;6.906;2023-04-12T08:36:34;7.50;99.90
52211;DHT22;38179;52.756;6.906;2023-04-12T08:39:00;7.60;99.90
52211;DHT22;38179;52.756;6.906;2023-04-12T08:41:26;7.60;99.90
52211;DHT22;38179;52.756;6.906;2023-04-12T08:43:52;7.60;99.90
52211;DHT22;38179;52.756;6.906;2023-04-12T08:46:20;7.60;99.90
52211;DHT22;38179;52.756;6.906;2023-04-12T08:48:47;7.60;99.90
52211;DHT22;38179;52.756;6.906;2023-04-12T08:51:13;7.50;99.90
52211;DHT22;38179;52.756;6.906;2023-04-12T08:53:41;7.60;99.90
52211;DHT22;38179;52.756;6.906;2023-04-12T08:56:08;7.50;99.90
52211;DHT22;38179;52.756;6.906;2023-04-12T08:58:39;7.60;99.90
52211;DHT22;38179;52.756;6.906;2023-04-12T09:01:12;7.60;99.90
52211;DHT22;38179;52.756;6.906;2023-04-12T09:03:39;7.50;99.90
52211;DHT22;38179;52.756;6.906;2023-04-12T09:06:05;7.60;99.90
52211;DHT22;38179;52.756;6.906;2023-04-12T09:08:31;7.60;99.90
52211;DHT22;38179;52.756;6.906;2023-04-12T09:10:56;7.60;99.90
52211;DHT22;38179;52.756;6.906;2023-04-12T09:13:32;7.60;99.90
52211;DHT22;38179;52.756;6.906;2023-04-12T09:15:58;7.60;99.90
52211;DHT22;38179;52.756;6.906;2023-04-12T09:18:24;7.60;99.90
52211;DHT22;38179;52.756;6.906;2023-04-12T09:21:07;7.60;99.90
52211;DHT22;38179;52.756;6.906;2023-04-12T09:23:33;7.60;99.90
52211;DHT22;38179;52.756;6.906;2023-04-12T09:26:02;7.70;99.90
52211;DHT22;38179;52.756;6.906;2023-04-12T09:28:28;7.70;99.90
52211;DHT22;38179;52.756;6.906;2023-04-12T09:30:55;7.70;99.90
52211;DHT22;38179;52.756;6.906;2023-04-12T09:33:22;7.80;99.90
52211;DHT22;38179;52.756;6.906;2023-04-12T09:35:49;7.70;99.90
52211;DHT22;38179;52.756;6.906;2023-04-12T09:38:15;7.70;99.90
52211;DHT22;38179;52.756;6.906;2023-04-12T09:40:41;7.80;99.90
52211;DHT22;38179;52.756;6.906;2023-04-12T09:43:07;7.80;99.90
52211;DHT22;38179;52.756;6.906;2023-04-12T09:45:33;7.80;99.90
52211;DHT22;38179;52.756;6.906;2023-04-12T09:48:00;7.80;99.90
52211;DHT22;38179;52.756;6.906;2023-04-12T09:50:26;7.80;99.90
52211;DHT22;38179;52.756;6.906;2023-04-12T09:52:53;7.90;99.90
52211;DHT22;38179;52.756;6.906;2023-04-12T09:55:22;7.80;99.90
52211;DHT22;38179;52.756;6.906;2023-04-12T09:57:49;7.90;99.90
52211;DHT22;38179;52.756;6.906;2023-04-12T10:00:15;7.90;99.90
52211;DHT22;38179;52.756;6.906;2023-04-12T10:02:45;8.00;99.90
52211;DHT22;38179;52.756;6.906;2023-04-12T10:05:11;8.00;99.90
52211;DHT22;38179;52.756;6.906;2023-04-12T10:07:40;8.00;99.90
52211;DHT22;38179;52.756;6.906;2023-04-12T10:10:07;8.10;99.90
52211;DHT22;38179;52.756;6.906;2023-04-12T10:12:36;8.10;99.90
52211;DHT22;38179;52.756;6.906;2023-04-12T10:15:06;8.10;99.90
52211;DHT22;38179;52.756;6.906;2023-04-12T10:17:44;8.20;99.90
52211;DHT22;38179;52.756;6.906;2023-04-12T10:20:10;8.20;99.90
52211;DHT22;38179;52.756;6.906;2023-04-12T10:22:40;8.20;99.90
52211;DHT22;38179;52.756;6.906;2023-04-12T10:25:08;8.30;99.90
52211;DHT22;38179;52.756;6.906;2023-04-12T10:27:34;8.40;99.90
52211;DHT22;38179;52.756;6.906;2023-04-12T10:32:45;8.50;99.90
52211;DHT22;38179;52.756;6.906;2023-04-12T10:35:11;8.70;99.90
52211;DHT22;38179;52.756;6.906;2023-04-12T10:40:21;8.90;99.90
52211;DHT22;38179;52.756;6.906;2023-04-12T10:42:47;9.00;99.90
52211;DHT22;38179;52.756;6.906;2023-04-12T10:50:20;9.10;99.90
52211;DHT22;38179;52.756;6.906;2023-04-12T10:55:33;9.20;99.90
52211;DHT22;38179;52.756;6.906;2023-04-12T10:57:59;9.20;99.90
52211;DHT22;38179;52.756;6.906;2023-04-12T11:00:25;9.30;99.90
52211;DHT22;38179;52.756;6.906;2023-04-12T11:03:11;9.30;99.90
52211;DHT22;38179;52.756;6.906;2023-04-12T11:08:41;9.50;99.90
52211;DHT22;38179;52.756;6.906;2023-04-12T11:11:19;9.60;99.90
52211;DHT22;38179;52.756;6.906;2023-04-12T11:13:46;9.60;99.90
52211;DHT22;38179;52.756;6.906;2023-04-12T11:16:12;9.60;99.90
52211;DHT22;38179;52.756;6.906;2023-04-12T11:18:38;9.60;99.90
52211;DHT22;38179;52.756;6.906;2023-04-12T11:21:04;9.70;99.90
52211;DHT22;38179;52.756;6.906;2023-04-12T11:23:30;9.80;99.90
52211;DHT22;38179;52.756;6.906;2023-04-12T11:25:56;9.90;99.90
52211;DHT22;38179;52.756;6.906;2023-04-12T11:28:22;9.90;99.90
52211;DHT22;38179;52.756;6.906;2023-04-12T11:30:51;10.00;99.90
52211;DHT22;38179;52.756;6.906;2023-04-12T11:33:33;10.10;99.90
52211;DHT22;38179;52.756;6.906;2023-04-12T11:36:02;10.20;99.90
52211;DHT22;38179;52.756;6.906;2023-04-12T11:38:28;10.20;99.90
52211;DHT22;38179;52.756;6.906;2023-04-12T11:40:54;10.30;99.90
52211;DHT22;38179;52.756;6.906;2023-04-12T11:43:20;10.40;99.90
52211;DHT22;38179;52.756;6.906;2023-04-12T11:45:46;10.40;99.90
52211;DHT22;38179;52.756;6.906;2023-04-12T11:48:12;10.50;99.90
52211;DHT22;38179;52.756;6.906;2023-04-12T11:50:37;10.50;99.90
52211;DHT22;38179;52.756;6.906;2023-04-12T11:53:10;10.50;99.90
52211;DHT22;38179;52.756;6.906;2023-04-12T11:55:36;10.50;99.90
52211;DHT22;38179;52.756;6.906;2023-04-12T11:58:02;10.50;99.90
52211;DHT22;38179;52.756;6.906;2023-04-12T12:00:28;10.50;99.90
52211;DHT22;38179;52.756;6.906;2023-04-12T12:02:55;10.50;99.90
52211;DHT22;38179;52.756;6.906;2023-04-12T12:05:21;10.50;99.90
52211;DHT22;38179;52.756;6.906;2023-04-12T12:07:48;10.70;99.90
52211;DHT22;38179;52.756;6.906;2023-04-12T12:10:13;10.90;99.90
52211;DHT22;38179;52.756;6.906;2023-04-12T12:12:42;11.00;99.90
52211;DHT22;38179;52.756;6.906;2023-04-12T12:15:08;11.10;99.90
52211;DHT22;38179;52.756;6.906;2023-04-12T12:17:37;11.10;99.90
52211;DHT22;38179;52.756;6.906;2023-04-12T12:20:03;11.30;99.90
52211;DHT22;38179;52.756;6.906;2023-04-12T12:22:29;11.40;99.90
52211;DHT22;38179;52.756;6.906;2023-04-12T12:24:58;11.60;99.90
52211;DHT22;38179;52.756;6.906;2023-04-12T12:27:35;11.80;99.90
52211;DHT22;38179;52.756;6.906;2023-04-12T12:30:02;11.90;99.90
52211;DHT22;38179;52.756;6.906;2023-04-12T12:32:36;11.80;99.90
52211;DHT22;38179;52.756;6.906;2023-04-12T12:35:07;11.70;99.90
52211;DHT22;38179;52.756;6.906;2023-04-12T12:37:33;11.60;99.90
52211;DHT22;38179;52.756;6.906;2023-04-12T12:40:06;11.60;99.90
52211;DHT22;38179;52.756;6.906;2023-04-12T12:42:36;11.50;99.90
52211;DHT22;38179;52.756;6.906;2023-04-12T12:45:02;11.60;99.90
52211;DHT22;38179;52.756;6.906;2023-04-12T12:47:29;11.70;99.90
52211;DHT22;38179;52.756;6.906;2023-04-12T12:49:55;11.80;99.90
52211;DHT22;38179;52.756;6.906;2023-04-12T12:52:21;11.80;99.90
52211;DHT22;38179;52.756;6.906;2023-04-12T12:54:50;11.80;99.90
52211;DHT22;38179;52.756;6.906;2023-04-12T12:57:15;11.80;99.90
52211;DHT22;38179;52.756;6.906;2023-04-12T12:59:41;11.70;99.90
52211;DHT22;38179;52.756;6.906;2023-04-12T13:02:07;11.70;99.90
52211;DHT22;38179;52.756;6.906;2023-04-12T13:04:32;11.70;99.90
52211;DHT22;38179;52.756;6.906;2023-04-12T13:06:58;11.70;99.90
52211;DHT22;38179;52.756;6.906;2023-04-12T13:09:24;11.70;99.90
52211;DHT22;38179;52.756;6.906;2023-04-12T13:11:50;11.60;99.90
52211;DHT22;38179;52.756;6.906;2023-04-12T13:14:15;11.70;99.90
52211;DHT22;38179;52.756;6.906;2023-04-12T13:16:41;11.60;99.90
52211;DHT22;38179;52.756;6.906;2023-04-12T13:19:07;11.60;99.90
52211;DHT22;38179;52.756;6.906;2023-04-12T13:21:32;11.60;99.90
52211;DHT22;38179;52.756;6.906;2023-04-12T13:23:58;11.60;99.90
52211;DHT22;38179;52.756;6.906;2023-04-12T13:26:24;11.50;99.90
52211;DHT22;38179;52.756;6.906;2023-04-12T13:28:50;11.60;99.90
52211;DHT22;38179;52.756;6.906;2023-04-12T13:31:16;11.50;99.90
52211;DHT22;38179;52.756;6.906;2023-04-12T13:33:42;11.40;99.90
52211;DHT22;38179;52.756;6.906;2023-04-12T13:36:07;11.40;99.90
52211;DHT22;38179;52.756;6.906;2023-04-12T13:38:33;11.30;99.90
52211;DHT22;38179;52.756;6.906;2023-04-12T13:41:02;11.30;99.90
52211;DHT22;38179;52.756;6.906;2023-04-12T13:43:28;11.20;99.90
52211;DHT22;38179;52.756;6.906;2023-04-12T13:45:54;11.20;99.90
52211;DHT22;38179;52.756;6.906;2023-04-12T13:48:19;11.10;99.90
52211;DHT22;38179;52.756;6.906;2023-04-12T13:50:45;11.00;99.90
52211;DHT22;38179;52.756;6.906;2023-04-12T13:53:11;10.80;99.90
52211;DHT22;38179;52.756;6.906;2023-04-12T13:55:37;10.50;99.90
52211;DHT22;38179;52.756;6.906;2023-04-12T13:58:02;10.30;99.90
52211;DHT22;38179;52.756;6.906;2023-04-12T14:00:28;10.10;99.90
52211;DHT22;38179;52.756;6.906;2023-04-12T14:02:54;9.60;99.90
52211;DHT22;38179;52.756;6.906;2023-04-12T14:05:20;9.10;99.90
52211;DHT22;38179;52.756;6.906;2023-04-12T14:07:47;8.80;99.90
52211;DHT22;38179;52.756;6.906;2023-04-12T14:10:14;8.50;99.90
52211;DHT22;38179;52.756;6.906;2023-04-12T14:12:40;8.40;99.90
52211;DHT22;38179;52.756;6.906;2023-04-12T14:15:05;8.30;99.90
52211;DHT22;38179;52.756;6.906;2023-04-12T14:17:31;8.30;99.90
52211;DHT22;38179;52.756;6.906;2023-04-12T14:19:57;8.30;99.90
52211;DHT22;38179;52.756;6.906;2023-04-12T14:22:23;8.30;99.90
52211;DHT22;38179;52.756;6.906;2023-04-12T14:24:49;8.40;99.90
52211;DHT22;38179;52.756;6.906;2023-04-12T14:27:15;8.40;99.90
52211;DHT22;38179;52.756;6.906;2023-04-12T14:29:40;8.40;99.90
52211;DHT22;38179;52.756;6.906;2023-04-12T14:32:06;8.50;99.90
52211;DHT22;38179;52.756;6.906;2023-04-12T14:34:32;8.60;99.90
52211;DHT22;38179;52.756;6.906;2023-04-12T14:36:58;8.60;99.90
52211;DHT22;38179;52.756;6.906;2023-04-12T14:39:24;8.70;99.90
52211;DHT22;38179;52.756;6.906;2023-04-12T14:41:51;8.70;99.90
52211;DHT22;38179;52.756;6.906;2023-04-12T14:44:17;8.80;99.90
52211;DHT22;38179;52.756;6.906;2023-04-12T14:46:43;8.90;99.90
52211;DHT22;38179;52.756;6.906;2023-04-12T14:49:09;9.00;99.90
52211;DHT22;38179;52.756;6.906;2023-04-12T14:51:35;9.10;99.90
52211;DHT22;38179;52.756;6.906;2023-04-12T14:54:00;9.20;99.90
52211;DHT22;38179;52.756;6.906;2023-04-12T14:56:26;9.40;99.90
52211;DHT22;38179;52.756;6.906;2023-04-12T14:58:52;9.60;99.90
52211;DHT22;38179;52.756;6.906;2023-04-12T15:01:19;9.80;99.90
52211;DHT22;38179;52.756;6.906;2023-04-12T15:03:45;10.00;99.90
52211;DHT22;38179;52.756;6.906;2023-04-12T15:06:11;10.10;99.90
52211;DHT22;38179;52.756;6.906;2023-04-12T15:08:38;10.30;99.90
52211;DHT22;38179;52.756;6.906;2023-04-12T15:11:10;10.30;99.90
52211;DHT22;38179;52.756;6.906;2023-04-12T15:13:37;10.20;99.90
52211;DHT22;38179;52.756;6.906;2023-04-12T15:16:06;10.20;99.90
52211;DHT22;38179;52.756;6.906;2023-04-12T15:18:36;10.30;99.90
52211;DHT22;38179;52.756;6.906;2023-04-12T15:21:09;10.30;99.90
52211;DHT22;38179;52.756;6.906;2023-04-12T15:23:39;10.30;99.90
52211;DHT22;38179;52.756;6.906;2023-04-12T15:26:05;10.20;99.90
52211;DHT22;38179;52.756;6.906;2023-04-12T15:28:33;10.10;99.90
52211;DHT22;38179;52.756;6.906;2023-04-12T15:30:59;10.10;99.90
52211;DHT22;38179;52.756;6.906;2023-04-12T15:33:26;10.00;99.90
52211;DHT22;38179;52.756;6.906;2023-04-12T15:35:52;10.00;99.90
52211;DHT22;38179;52.756;6.906;2023-04-12T15:38:21;10.00;99.90
52211;DHT22;38179;52.756;6.906;2023-04-12T15:40:52;10.00;99.90
52211;DHT22;38179;52.756;6.906;2023-04-12T15:43:18;10.00;99.90
52211;DHT22;38179;52.756;6.906;2023-04-12T15:45:44;10.00;99.90
52211;DHT22;38179;52.756;6.906;2023-04-12T15:48:09;10.00;99.90
52211;DHT22;38179;52.756;6.906;2023-04-12T15:50:38;9.90;99.90
52211;DHT22;38179;52.756;6.906;2023-04-12T15:53:04;9.90;99.90
52211;DHT22;38179;52.756;6.906;2023-04-12T15:55:30;9.90;99.90
52211;DHT22;38179;52.756;6.906;2023-04-12T15:57:56;9.90;99.90
52211;DHT22;38179;52.756;6.906;2023-04-12T16:00:22;9.90;99.90
52211;DHT22;38179;52.756;6.906;2023-04-12T16:02:51;9.80;99.90
52211;DHT22;38179;52.756;6.906;2023-04-12T16:05:23;9.80;99.90
52211;DHT22;38179;52.756;6.906;2023-04-12T16:07:52;9.70;99.90